KAIA/AIA METAR and TAF weather

Enter ICAO airport designator
Station Type Date Time Source
KAIA METAR 2020/10/20 17:53 UTC NOAA

KAIA 201753Z AUTO 36015KT 10SM CLR 14/03 A2994 RMK AO2 SLP130 T01390028 10139 20011 51005


Station Type Date Time Source
KAIA Decoded METAR 2020/10/20 17:53 UTC NOAA

ALLIANCE MUNICIPAL AIRPORT, NE, United States (KAIA) 42-03N 102-48W 1196M
Oct 20, 2020 - 01:53 PM EDT / 2020.10.20 1753 UTC
Wind: from the N (360 degrees) at 17 MPH (15 KT):0
Visibility: 10 mile(s):0
Sky conditions: clear
Temperature: 57.0 F (13.9 C)
Dew Point: 37.0 F (2.8 C)
Relative Humidity: 47%
Pressure (altimeter): 29.94 in. Hg (1013 hPa)
Pressure tendency: 0.01 inches (0.5 hPa) higher than three hours ago
ob: KAIA 201753Z AUTO 36015KT 10SM CLR 14/03 A2994 RMK AO2 SLP130 T01390028 10139 20011 51005
cycle: 18

Station Type Date Time Source
KAIA TAF 2020/10/20 18:39 UTC NOAA

TAF KAIA 201737Z 2018/2118 33015G25KT P6SM BKN150
FM210000 04008KT P6SM BKN080
FM210400 VRB03KT P6SM -RA BKN060
FM210700 18012KT P6SM -RA SCT006 BKN060
FM211500 18015G25KT P6SM SCT060

Example: see airport list